Time;durP1;ratioP1;P1;durP2;ratioP2;P2;SDS_P1;SDS_P2;PMS_P1;PMS_P2;Temp;Humidity;BMP_temperature;BMP_pressure;BME280_temperature;BME280_humidity;BME280_pressure;Samples;Min_cycle;Max_cycle;Signal;HPM_P1;HPM_P2
2023/10/28 00:02:23;;;;;;;;;;;23.30;55.80;;;;;;5093048;28;19986;-53
2023/10/28 00:04:51;;;;;;;;;;;23.30;55.80;;;;;;5094994;28;20014;-51
2023/10/28 00:07:18;;;;;;;;;;;23.30;55.80;;;;;;5097492;28;19975;-50
2023/10/28 00:09:45;;;;;;;;;;;23.30;55.70;;;;;;5097400;28;20014;-52
2023/10/28 00:12:14;;;;;;;;;;;23.30;55.80;;;;;;5097386;28;19924;-52
2023/10/28 00:14:41;;;;;;;;;;;23.30;55.70;;;;;;5097157;28;19924;-49
2023/10/28 00:17:08;;;;;;;;;;;23.30;55.70;;;;;;5097198;28;19982;-52
2023/10/28 00:19:35;;;;;;;;;;;23.30;55.70;;;;;;5096649;28;20368;-51
2023/10/28 00:22:02;;;;;;;;;;;23.30;55.70;;;;;;5113011;28;19924;-51
2023/10/28 00:24:29;;;;;;;;;;;23.30;55.70;;;;;;5097268;28;19924;-51
2023/10/28 00:26:56;;;;;;;;;;;23.30;55.70;;;;;;5097310;28;19981;-56
2023/10/28 00:29:23;;;;;;;;;;;23.30;55.70;;;;;;5096949;28;19989;-56
2023/10/28 00:31:51;;;;;;;;;;;23.30;55.70;;;;;;5101082;28;20310;-56
2023/10/28 00:34:18;;;;;;;;;;;23.30;55.70;;;;;;5117745;28;19924;-55
2023/10/28 00:36:45;;;;;;;;;;;23.30;55.80;;;;;;5132861;27;19927;-55
2023/10/28 00:39:12;;;;;;;;;;;23.20;55.80;;;;;;5117178;28;19954;-54
2023/10/28 00:41:39;;;;;;;;;;;23.20;55.80;;;;;;5117219;28;19924;-55
2023/10/28 00:44:06;;;;;;;;;;;23.20;55.80;;;;;;5117314;28;20479;-54
2023/10/28 00:46:33;;;;;;;;;;;23.20;55.90;;;;;;5117056;28;19963;-54
2023/10/28 00:49:00;;;;;;;;;;;23.20;55.90;;;;;;5117274;28;19924;-55
2023/10/28 00:51:28;;;;;;;;;;;23.20;55.90;;;;;;5117330;27;19924;-53
2023/10/28 00:53:55;;;;;;;;;;;23.20;55.90;;;;;;5116899;28;19967;-53
2023/10/28 00:56:22;;;;;;;;;;;23.20;55.90;;;;;;5117164;28;20362;-55
2023/10/28 00:58:51;;;;;;;;;;;23.20;55.80;;;;;;5117165;28;19924;-55
2023/10/28 01:01:19;;;;;;;;;;;23.20;55.80;;;;;;5116820;28;19924;-55
2023/10/28 01:03:46;;;;;;;;;;;23.20;55.80;;;;;;5116655;28;19928;-52
2023/10/28 01:06:14;;;;;;;;;;;23.20;55.80;;;;;;5116638;28;19977;-54
2023/10/28 01:08:40;;;;;;;;;;;23.20;55.80;;;;;;5116243;28;19971;-53
2023/10/28 01:11:07;;;;;;;;;;;23.20;55.80;;;;;;5116888;28;20307;-53
2023/10/28 01:13:34;;;;;;;;;;;23.20;55.80;;;;;;5116589;28;20029;-49
2023/10/28 01:16:03;;;;;;;;;;;23.20;55.70;;;;;;5115875;27;19930;-50
2023/10/28 01:18:31;;;;;;;;;;;23.30;55.70;;;;;;5116680;27;19924;-49
2023/10/28 01:21:02;;;;;;;;;;;23.20;55.70;;;;;;5102774;28;19925;-51
2023/10/28 01:23:29;;;;;;;;;;;23.20;55.70;;;;;;5095833;28;19924;-51
2023/10/28 01:25:56;;;;;;;;;;;23.20;55.70;;;;;;5095550;28;19969;-52
2023/10/28 01:28:23;;;;;;;;;;;23.30;55.70;;;;;;5096108;28;19924;-52
2023/10/28 01:30:50;;;;;;;;;;;23.20;55.60;;;;;;5095808;28;19939;-52
2023/10/28 01:33:17;;;;;;;;;;;23.20;55.60;;;;;;5095788;28;20023;-51
2023/10/28 01:35:44;;;;;;;;;;;23.20;55.60;;;;;;5095591;28;19975;-51
2023/10/28 01:38:11;;;;;;;;;;;23.20;55.60;;;;;;5095556;28;19924;-52
2023/10/28 01:40:38;;;;;;;;;;;23.20;55.60;;;;;;5095811;28;19924;-51
2023/10/28 01:43:06;;;;;;;;;;;23.20;55.60;;;;;;5095504;28;20346;-52
2023/10/28 01:45:34;;;;;;;;;;;23.20;55.60;;;;;;5095867;28;19928;-53
2023/10/28 01:48:01;;;;;;;;;;;23.20;55.60;;;;;;5095672;28;19924;-50
2023/10/28 01:50:28;;;;;;;;;;;23.20;55.60;;;;;;5095716;28;19978;-50
2023/10/28 01:52:55;;;;;;;;;;;23.20;55.60;;;;;;5095343;28;19924;-49
2023/10/28 01:55:22;;;;;;;;;;;23.20;55.60;;;;;;5095646;28;19977;-53
2023/10/28 01:57:49;;;;;;;;;;;23.20;55.70;;;;;;5095180;28;19928;-54
2023/10/28 02:00:16;;;;;;;;;;;23.20;55.70;;;;;;5110939;28;19963;-50
2023/10/28 02:02:45;;;;;;;;;;;23.20;55.80;;;;;;5095361;28;19946;-53
2023/10/28 02:05:15;;;;;;;;;;;23.20;55.80;;;;;;5095219;28;19978;-54
2023/10/28 02:07:42;;;;;;;;;;;23.20;55.80;;;;;;5095252;28;19924;-54
2023/10/28 02:10:09;;;;;;;;;;;23.10;55.80;;;;;;5095091;28;19931;-53
2023/10/28 02:12:36;;;;;;;;;;;23.10;55.70;;;;;;5095196;28;19924;-54
2023/10/28 02:15:08;;;;;;;;;;;23.10;55.80;;;;;;5094673;28;19928;-52
2023/10/28 02:17:35;;;;;;;;;;;23.20;55.80;;;;;;5094858;28;19928;-55
2023/10/28 02:20:04;;;;;;;;;;;23.10;55.70;;;;;;5093675;28;20295;-54
2023/10/28 02:22:31;;;;;;;;;;;23.20;55.80;;;;;;5094674;28;20387;-52
2023/10/28 02:24:58;;;;;;;;;;;23.20;55.70;;;;;;5094817;28;19930;-52
2023/10/28 02:27:25;;;;;;;;;;;23.20;55.70;;;;;;5094979;28;19974;-56
2023/10/28 02:29:52;;;;;;;;;;;23.20;55.70;;;;;;5094833;28;19981;-50
2023/10/28 02:32:19;;;;;;;;;;;23.20;55.70;;;;;;5094809;28;20022;-54
2023/10/28 02:34:46;;;;;;;;;;;23.20;55.70;;;;;;5094463;28;19978;-51
2023/10/28 02:37:14;;;;;;;;;;;23.10;56.10;;;;;;5094946;28;19931;-56
2023/10/28 02:39:41;;;;;;;;;;;23.20;55.60;;;;;;5094727;28;19924;-56
2023/10/28 02:42:09;;;;;;;;;;;23.20;55.60;;;;;;5094700;28;19924;-56
2023/10/28 02:44:36;;;;;;;;;;;23.20;55.50;;;;;;5094647;28;19924;-54
2023/10/28 02:47:03;;;;;;;;;;;23.20;55.50;;;;;;5093291;28;20015;-54
2023/10/28 02:49:31;;;;;;;;;;;23.20;55.50;;;;;;5092952;28;20014;-54
2023/10/28 02:51:58;;;;;;;;;;;23.20;55.50;;;;;;5094204;28;19924;-54
2023/10/28 02:54:25;;;;;;;;;;;23.20;55.50;;;;;;5094177;28;19966;-56
2023/10/28 02:56:52;;;;;;;;;;;23.20;55.50;;;;;;5094508;28;19969;-55
2023/10/28 02:59:19;;;;;;;;;;;23.20;55.50;;;;;;5112134;28;19923;-53
2023/10/28 03:01:46;;;;;;;;;;;23.20;55.50;;;;;;5114257;28;19967;-56
2023/10/28 03:04:13;;;;;;;;;;;23.20;55.50;;;;;;5114671;28;19923;-52
2023/10/28 03:06:40;;;;;;;;;;;23.20;55.50;;;;;;5113261;28;19923;-55
2023/10/28 03:09:07;;;;;;;;;;;23.20;55.60;;;;;;5114287;28;20471;-54
2023/10/28 03:11:34;;;;;;;;;;;23.20;55.50;;;;;;5114563;28;19977;-54
2023/10/28 03:14:01;;;;;;;;;;;23.20;56.10;;;;;;5114323;28;19947;-56
2023/10/28 03:16:28;;;;;;;;;;;23.20;55.60;;;;;;5114609;28;19951;-53
2023/10/28 03:18:56;;;;;;;;;;;23.20;55.60;;;;;;5114180;28;19923;-52
2023/10/28 03:21:23;;;;;;;;;;;23.10;55.60;;;;;;5114023;28;19931;-52
2023/10/28 03:23:51;;;;;;;;;;;23.10;55.70;;;;;;5114127;28;19924;-51
2023/10/28 03:26:18;;;;;;;;;;;23.10;55.70;;;;;;5114438;28;19965;-51
2023/10/28 03:28:46;;;;;;;;;;;23.10;55.70;;;;;;5114622;28;19967;-55
2023/10/28 03:31:13;;;;;;;;;;;23.10;55.70;;;;;;5113955;28;19924;-52
2023/10/28 03:33:40;;;;;;;;;;;23.10;55.80;;;;;;5114139;28;19924;-50
2023/10/28 03:36:10;;;;;;;;;;;23.10;55.80;;;;;;5114397;28;19931;-55
2023/10/28 03:38:38;;;;;;;;;;;23.10;55.80;;;;;;5113544;28;20341;-51
2023/10/28 03:41:06;;;;;;;;;;;23.10;55.80;;;;;;5114107;28;19924;-50
2023/10/28 03:43:33;;;;;;;;;;;23.10;55.70;;;;;;5113747;28;19924;-54
2023/10/28 03:46:01;;;;;;;;;;;23.10;55.70;;;;;;5112874;28;19924;-52
2023/10/28 03:48:28;;;;;;;;;;;23.10;55.70;;;;;;5093729;28;19928;-50
2023/10/28 03:50:56;;;;;;;;;;;23.10;55.70;;;;;;5094386;28;19924;-50
2023/10/28 03:53:23;;;;;;;;;;;23.10;55.70;;;;;;5112556;28;20324;-49
2023/10/28 03:55:50;;;;;;;;;;;23.10;55.70;;;;;;5113609;28;19927;-51
2023/10/28 03:58:17;;;;;;;;;;;23.10;55.60;;;;;;5113742;28;19930;-53
2023/10/28 04:00:44;;;;;;;;;;;23.10;55.60;;;;;;5114090;28;19974;-50
2023/10/28 04:03:11;;;;;;;;;;;23.10;55.60;;;;;;5112917;28;19954;-51
2023/10/28 04:05:38;;;;;;;;;;;23.10;55.60;;;;;;5113903;28;19934;-50
2023/10/28 04:08:05;;;;;;;;;;;23.10;55.60;;;;;;5113555;28;20375;-52
2023/10/28 04:10:33;;;;;;;;;;;23.10;55.60;;;;;;5113706;28;19924;-49
2023/10/28 04:13:00;;;;;;;;;;;23.10;55.60;;;;;;5112183;28;19924;-49
2023/10/28 04:15:27;;;;;;;;;;;23.10;55.60;;;;;;5114068;28;19923;-52
2023/10/28 04:17:54;;;;;;;;;;;23.10;55.60;;;;;;5113463;28;19934;-52
2023/10/28 04:20:21;;;;;;;;;;;23.10;55.60;;;;;;5113597;28;20360;-53
2023/10/28 04:22:48;;;;;;;;;;;23.10;55.60;;;;;;5113408;28;19935;-51
2023/10/28 04:25:15;;;;;;;;;;;23.10;55.60;;;;;;5113594;28;19945;-51
2023/10/28 04:27:43;;;;;;;;;;;23.10;55.60;;;;;;5113623;28;19931;-54
2023/10/28 04:30:10;;;;;;;;;;;23.10;55.60;;;;;;5113102;28;20020;-51
2023/10/28 04:32:38;;;;;;;;;;;23.10;55.60;;;;;;5113686;28;20311;-50
2023/10/28 04:35:10;;;;;;;;;;;23.10;55.60;;;;;;5113549;28;19924;-50
2023/10/28 04:37:53;;;;;;;;;;;23.10;55.60;;;;;;5113345;28;19928;-50
2023/10/28 04:40:20;;;;;;;;;;;23.10;55.50;;;;;;5113429;28;19931;-51
2023/10/28 04:42:47;;;;;;;;;;;23.10;55.40;;;;;;5113201;28;19924;-51
2023/10/28 04:45:14;;;;;;;;;;;23.10;55.30;;;;;;5113437;28;19928;-57
2023/10/28 04:47:41;;;;;;;;;;;23.10;55.20;;;;;;5113479;28;19924;-57
2023/10/28 04:50:09;;;;;;;;;;;23.10;55.20;;;;;;5113289;28;20300;-57
2023/10/28 04:52:36;;;;;;;;;;;23.10;55.10;;;;;;5116335;28;19924;-57
2023/10/28 04:55:03;;;;;;;;;;;23.10;55.00;;;;;;5116928;28;20440;-54
2023/10/28 04:57:30;;;;;;;;;;;23.10;54.90;;;;;;5117062;28;19923;-55
2023/10/28 04:59:57;;;;;;;;;;;23.10;55.00;;;;;;5117093;28;19924;-56
2023/10/28 05:02:24;;;;;;;;;;;23.10;54.80;;;;;;5115760;28;19931;-56
2023/10/28 05:04:51;;;;;;;;;;;23.10;54.70;;;;;;5116944;28;19923;-53
2023/10/28 05:07:18;;;;;;;;;;;23.10;54.60;;;;;;5116698;28;19934;-54
2023/10/28 05:09:45;;;;;;;;;;;23.00;54.50;;;;;;5116532;28;19974;-55
2023/10/28 05:12:12;;;;;;;;;;;23.00;54.50;;;;;;5115388;28;19973;-53
2023/10/28 05:14:39;;;;;;;;;;;23.00;54.50;;;;;;5116346;28;19923;-55
2023/10/28 05:17:06;;;;;;;;;;;23.00;54.40;;;;;;5116787;28;19924;-52
2023/10/28 05:19:33;;;;;;;;;;;23.00;54.40;;;;;;5116435;28;20296;-55
2023/10/28 05:22:02;;;;;;;;;;;23.00;54.40;;;;;;5116633;28;19984;-55
2023/10/28 05:24:30;;;;;;;;;;;23.00;54.40;;;;;;5116600;28;19924;-56
2023/10/28 05:27:00;;;;;;;;;;;23.00;54.30;;;;;;5116282;28;19923;-50
2023/10/28 05:29:26;;;;;;;;;;;23.00;54.30;;;;;;5116602;28;20405;-52
2023/10/28 05:31:56;;;;;;;;;;;23.00;54.30;;;;;;5116346;28;20367;-55
2023/10/28 05:34:23;;;;;;;;;;;23.00;54.20;;;;;;5115932;27;19977;-51
2023/10/28 05:36:51;;;;;;;;;;;23.00;54.20;;;;;;5115824;28;20384;-54
2023/10/28 05:39:18;;;;;;;;;;;23.00;54.20;;;;;;5115343;28;19923;-51
2023/10/28 05:41:45;;;;;;;;;;;23.00;54.20;;;;;;5116119;28;19963;-53
2023/10/28 05:44:12;;;;;;;;;;;23.00;54.20;;;;;;5114750;28;19974;-51
2023/10/28 05:46:39;;;;;;;;;;;23.00;54.10;;;;;;5116010;28;19928;-52
2023/10/28 05:49:05;;;;;;;;;;;23.00;54.40;;;;;;5116256;28;19953;-54
2023/10/28 05:51:36;;;;;;;;;;;23.00;54.10;;;;;;5115825;28;19984;-51
2023/10/28 05:54:03;;;;;;;;;;;23.00;54.00;;;;;;5115742;28;20415;-50
2023/10/28 05:56:31;;;;;;;;;;;23.00;54.00;;;;;;5110398;28;19924;-52
2023/10/28 05:58:58;;;;;;;;;;;23.00;54.00;;;;;;5095224;28;20380;-53
2023/10/28 06:01:25;;;;;;;;;;;23.00;53.90;;;;;;5095320;28;19924;-49
2023/10/28 06:03:52;;;;;;;;;;;23.00;53.80;;;;;;5094945;28;20330;-54
2023/10/28 06:06:19;;;;;;;;;;;23.10;53.80;;;;;;5095565;28;19931;-51
2023/10/28 06:08:47;;;;;;;;;;;23.10;53.70;;;;;;5095028;28;19970;-50
2023/10/28 06:11:14;;;;;;;;;;;23.10;53.60;;;;;;5095566;28;19924;-55
2023/10/28 06:13:41;;;;;;;;;;;23.10;53.50;;;;;;5094916;28;20299;-52
2023/10/28 06:16:08;;;;;;;;;;;23.20;53.40;;;;;;5095289;28;19971;-50
2023/10/28 06:18:35;;;;;;;;;;;23.20;53.40;;;;;;5095257;28;20368;-54
2023/10/28 06:21:03;;;;;;;;;;;23.30;53.30;;;;;;5093691;28;20333;-52
2023/10/28 06:23:30;;;;;;;;;;;23.30;53.10;;;;;;5094666;28;19979;-51
2023/10/28 06:25:57;;;;;;;;;;;23.30;53.00;;;;;;5094952;28;20001;-51
2023/10/28 06:28:24;;;;;;;;;;;23.30;53.00;;;;;;5095090;28;20342;-49
2023/10/28 06:30:51;;;;;;;;;;;23.30;52.90;;;;;;5095034;28;20443;-54
2023/10/28 06:33:18;;;;;;;;;;;23.40;52.90;;;;;;5094613;28;19977;-52
2023/10/28 06:35:46;;;;;;;;;;;23.40;52.80;;;;;;5094791;28;19927;-52
2023/10/28 06:38:13;;;;;;;;;;;23.40;52.90;;;;;;5094359;28;20452;-56
2023/10/28 06:40:40;;;;;;;;;;;23.30;52.80;;;;;;5101314;28;19924;-52
2023/10/28 06:43:07;;;;;;;;;;;23.30;52.80;;;;;;5113439;28;19924;-52
2023/10/28 06:45:34;;;;;;;;;;;23.30;52.80;;;;;;5113187;28;19928;-52
2023/10/28 06:48:03;;;;;;;;;;;23.30;52.80;;;;;;5114448;28;19924;-51
2023/10/28 06:50:30;;;;;;;;;;;23.30;52.80;;;;;;5114612;28;19959;-50
2023/10/28 06:52:59;;;;;;;;;;;23.30;52.80;;;;;;5113568;28;19931;-53
2023/10/28 06:55:27;;;;;;;;;;;23.30;52.80;;;;;;5114365;28;19924;-52
2023/10/28 06:58:00;;;;;;;;;;;23.30;52.80;;;;;;5114063;28;20330;-57
2023/10/28 07:00:28;;;;;;;;;;;23.30;52.70;;;;;;5114331;28;19927;-57
2023/10/28 07:02:59;;;;;;;;;;;23.40;52.70;;;;;;5114360;28;20404;-57
2023/10/28 07:05:26;;;;;;;;;;;23.40;52.70;;;;;;5114714;28;20310;-56
2023/10/28 07:07:57;;;;;;;;;;;23.30;52.60;;;;;;5112414;28;19981;-54
2023/10/28 07:10:24;;;;;;;;;;;23.40;52.70;;;;;;5113453;28;19924;-54
2023/10/28 07:12:51;;;;;;;;;;;23.40;52.70;;;;;;5113722;28;19924;-53
2023/10/28 07:15:18;;;;;;;;;;;23.40;52.70;;;;;;5128593;27;19924;-56
2023/10/28 07:17:45;;;;;;;;;;;23.40;52.70;;;;;;5113930;28;19924;-51
2023/10/28 07:20:12;;;;;;;;;;;23.40;52.70;;;;;;5113894;28;19924;-55
2023/10/28 07:22:41;;;;;;;;;;;23.40;52.60;;;;;;5113728;28;20379;-51
2023/10/28 07:25:09;;;;;;;;;;;23.40;52.60;;;;;;5114005;28;19979;-55
2023/10/28 07:27:37;;;;;;;;;;;23.40;52.60;;;;;;5113990;28;19924;-54
2023/10/28 07:30:04;;;;;;;;;;;23.40;52.50;;;;;;5113937;28;20380;-54
2023/10/28 07:32:31;;;;;;;;;;;23.50;52.50;;;;;;5112246;28;19923;-50
2023/10/28 07:34:58;;;;;;;;;;;23.50;52.50;;;;;;5113500;28;20415;-54
2023/10/28 07:37:25;;;;;;;;;;;23.50;52.40;;;;;;5113157;28;19974;-54
2023/10/28 07:39:52;;;;;;;;;;;23.60;52.40;;;;;;5113089;28;20342;-51
2023/10/28 07:42:22;;;;;;;;;;;23.60;52.20;;;;;;5113107;28;19980;-51
2023/10/28 07:44:51;;;;;;;;;;;23.60;52.20;;;;;;5112061;28;19934;-51
2023/10/28 07:47:18;;;;;;;;;;;23.70;52.20;;;;;;5111868;28;20266;-56
2023/10/28 07:49:45;;;;;;;;;;;23.70;52.10;;;;;;5111282;28;19935;-55
2023/10/28 07:52:12;;;;;;;;;;;23.70;52.10;;;;;;5112583;28;19932;-50
2023/10/28 07:54:39;;;;;;;;;;;23.70;52.00;;;;;;5113172;28;19928;-50
2023/10/28 07:57:06;;;;;;;;;;;23.70;52.00;;;;;;5113222;28;19970;-52
2023/10/28 07:59:33;;;;;;;;;;;23.80;52.00;;;;;;5113338;28;19978;-51
2023/10/28 08:02:01;;;;;;;;;;;23.80;52.00;;;;;;5094404;28;19924;-49
2023/10/28 08:04:28;;;;;;;;;;;23.80;52.00;;;;;;5092188;28;19924;-54
2023/10/28 08:06:55;;;;;;;;;;;23.80;52.00;;;;;;5092413;28;20018;-51
2023/10/28 08:09:22;;;;;;;;;;;23.90;52.00;;;;;;5092694;28;19978;-50
2023/10/28 08:11:50;;;;;;;;;;;23.90;51.90;;;;;;5092022;28;19928;-51
2023/10/28 08:14:17;;;;;;;;;;;23.90;51.90;;;;;;5092840;28;19924;-52
2023/10/28 08:16:45;;;;;;;;;;;23.90;51.80;;;;;;5093150;28;20002;-50
2023/10/28 08:19:12;;;;;;;;;;;23.90;51.80;;;;;;5091843;28;20023;-51
2023/10/28 08:21:39;;;;;;;;;;;24.00;51.80;;;;;;5091173;28;19928;-51
2023/10/28 08:24:08;;;;;;;;;;;24.00;51.80;;;;;;5092681;28;19928;-49
2023/10/28 08:26:35;;;;;;;;;;;24.00;51.80;;;;;;5095071;28;19932;-50
2023/10/28 08:29:02;;;;;;;;;;;24.00;51.70;;;;;;5095691;28;19924;-51
2023/10/28 08:31:29;;;;;;;;;;;24.00;51.70;;;;;;5096709;28;19965;-50
2023/10/28 08:33:56;;;;;;;;;;;24.00;51.70;;;;;;5095795;28;19963;-53
2023/10/28 08:36:25;;;;;;;;;;;24.00;51.60;;;;;;5095699;28;20015;-51
2023/10/28 08:38:52;;;;;;;;;;;24.00;51.60;;;;;;5095203;28;19924;-53
2023/10/28 08:41:21;;;;;;;;;;;24.00;51.70;;;;;;5095577;28;19928;-55
2023/10/28 08:43:50;;;;;;;;;;;24.00;51.70;;;;;;5094327;28;19971;-54
2023/10/28 08:46:17;;;;;;;;;;;24.00;51.60;;;;;;5095832;28;19924;-49
2023/10/28 08:48:44;;;;;;;;;;;24.00;51.70;;;;;;5096379;28;19977;-51
2023/10/28 08:51:12;;;;;;;;;;;24.10;51.70;;;;;;5096708;28;19955;-50
2023/10/28 08:53:40;;;;;;;;;;;24.10;51.70;;;;;;5096071;28;19955;-53
2023/10/28 08:56:07;;;;;;;;;;;24.10;51.70;;;;;;5096712;28;19924;-50
2023/10/28 08:58:37;;;;;;;;;;;24.10;51.70;;;;;;5096435;28;20027;-50
2023/10/28 09:01:04;;;;;;;;;;;24.10;51.60;;;;;;5112022;28;20266;-54
2023/10/28 09:03:32;;;;;;;;;;;24.10;51.60;;;;;;5094121;28;19946;-54
2023/10/28 09:06:02;;;;;;;;;;;24.20;51.60;;;;;;5093874;28;19943;-55
2023/10/28 09:08:29;;;;;;;;;;;24.20;51.60;;;;;;5110950;28;20383;-55
2023/10/28 09:10:57;;;;;;;;;;;24.20;51.50;;;;;;5114350;28;20462;-54
2023/10/28 09:13:24;;;;;;;;;;;24.20;51.40;;;;;;5115643;28;20334;-54
2023/10/28 09:15:52;;;;;;;;;;;24.20;51.40;;;;;;5116057;28;19946;-56
2023/10/28 09:18:19;;;;;;;;;;;24.20;51.40;;;;;;5114098;28;20022;-55
2023/10/28 09:20:46;;;;;;;;;;;24.20;51.40;;;;;;5113890;28;19924;-54
2023/10/28 09:23:13;;;;;;;;;;;24.30;51.50;;;;;;5116037;28;19928;-56
2023/10/28 09:25:40;;;;;;;;;;;24.20;51.40;;;;;;5129367;27;19928;-58
2023/10/28 09:28:14;;;;;;;;;;;24.20;51.40;;;;;;5114124;28;19932;-57
2023/10/28 09:30:46;;;;;;;;;;;24.20;51.40;;;;;;5115112;28;19930;-58
2023/10/28 09:33:17;;;;;;;;;;;24.20;51.50;;;;;;5114831;28;20287;-56
2023/10/28 09:35:45;;;;;;;;;;;24.30;51.50;;;;;;5115134;28;19927;-55
2023/10/28 09:38:12;;;;;;;;;;;24.30;51.50;;;;;;5114329;28;20037;-52
2023/10/28 09:40:39;;;;;;;;;;;24.30;51.60;;;;;;5113974;28;19932;-55
2023/10/28 09:43:06;;;;;;;;;;;24.30;51.60;;;;;;5116024;28;19930;-55
2023/10/28 09:45:35;;;;;;;;;;;24.30;51.60;;;;;;5115299;28;19969;-53
2023/10/28 09:48:10;;;;;;;;;;;24.30;51.50;;;;;;5113922;28;20291;-51
2023/10/28 09:50:41;;;;;;;;;;;24.30;51.50;;;;;;5115498;28;19969;-56
2023/10/28 09:53:09;;;;;;;;;;;24.30;51.40;;;;;;5116026;28;20022;-53
2023/10/28 09:55:39;;;;;;;;;;;24.30;51.50;;;;;;5116058;28;20295;-55
2023/10/28 09:58:11;;;;;;;;;;;24.30;51.40;;;;;;5115581;28;19924;-54
2023/10/28 10:00:39;;;;;;;;;;;24.40;51.50;;;;;;5114866;28;20284;-54
2023/10/28 10:03:25;;;;;;;;;;;24.40;51.40;;;;;;5115873;28;19967;-55
2023/10/28 10:05:53;;;;;;;;;;;24.40;51.40;;;;;;5114220;28;20372;-54
2023/10/28 10:08:21;;;;;;;;;;;24.40;51.30;;;;;;5113864;28;20345;-56
2023/10/28 10:10:50;;;;;;;;;;;24.50;51.20;;;;;;5114361;28;20390;-53
2023/10/28 10:13:17;;;;;;;;;;;24.50;51.20;;;;;;5114136;28;19967;-55
2023/10/28 10:15:53;;;;;;;;;;;24.50;51.10;;;;;;5113704;28;19924;-55
2023/10/28 10:18:31;;;;;;;;;;;24.60;51.00;;;;;;5114446;28;19935;-55
2023/10/28 10:21:10;;;;;;;;;;;24.60;50.80;;;;;;5114943;28;19969;-55
2023/10/28 10:23:42;;;;;;;;;;;24.70;50.70;;;;;;5130961;27;20018;-56
2023/10/28 10:26:24;;;;;;;;;;;24.70;50.50;;;;;;5114995;28;19934;-48
2023/10/28 10:28:52;;;;;;;;;;;24.80;50.40;;;;;;5115156;28;19923;-55
2023/10/28 10:31:23;;;;;;;;;;;24.80;50.40;;;;;;5114926;28;19927;-51
2023/10/28 10:34:09;;;;;;;;;;;24.90;50.30;;;;;;5114359;28;19927;-52
2023/10/28 10:36:43;;;;;;;;;;;24.90;50.20;;;;;;5115029;28;19924;-50
2023/10/28 10:39:15;;;;;;;;;;;24.90;50.10;;;;;;5114651;28;19923;-55
2023/10/28 10:41:51;;;;;;;;;;;24.90;50.00;;;;;;5114644;28;19986;-54
2023/10/28 10:44:22;;;;;;;;;;;24.90;50.00;;;;;;5096545;28;19971;-50
2023/10/28 10:46:53;;;;;;;;;;;25.00;50.00;;;;;;5094155;28;19928;-52
2023/10/28 10:49:20;;;;;;;;;;;25.00;49.90;;;;;;5094263;28;19924;-53
2023/10/28 10:51:47;;;;;;;;;;;25.00;49.80;;;;;;5093610;28;19924;-53
2023/10/28 10:54:16;;;;;;;;;;;25.00;49.60;;;;;;5094306;28;19924;-51
2023/10/28 10:56:43;;;;;;;;;;;25.10;49.70;;;;;;5092147;28;19952;-56
2023/10/28 10:59:10;;;;;;;;;;;25.10;49.50;;;;;;5094320;28;20328;-53
2023/10/28 11:01:37;;;;;;;;;;;25.10;49.50;;;;;;5093059;28;19924;-54
2023/10/28 11:04:05;;;;;;;;;;;25.10;49.50;;;;;;5093666;28;20380;-50
2023/10/28 11:06:33;;;;;;;;;;;25.20;49.50;;;;;;5093598;28;19954;-54
2023/10/28 11:09:01;;;;;;;;;;;25.20;49.50;;;;;;5093858;28;19924;-52
2023/10/28 11:11:29;;;;;;;;;;;25.20;49.40;;;;;;5093673;28;19928;-50
2023/10/28 11:13:56;;;;;;;;;;;25.20;49.40;;;;;;5108330;28;19924;-56
2023/10/28 11:16:27;;;;;;;;;;;25.20;49.40;;;;;;5114551;28;20272;-51
2023/10/28 11:18:56;;;;;;;;;;;25.20;49.40;;;;;;5113262;28;21391;-52
2023/10/28 11:21:23;;;;;;;;;;;25.20;49.50;;;;;;5114132;28;19928;-55
2023/10/28 11:23:50;;;;;;;;;;;25.10;49.40;;;;;;5113744;28;19923;-53
2023/10/28 11:26:22;;;;;;;;;;;25.10;49.40;;;;;;5114135;28;19930;-51
2023/10/28 11:28:49;;;;;;;;;;;25.10;49.50;;;;;;5114267;28;19924;-56
2023/10/28 11:31:19;;;;;;;;;;;25.10;49.60;;;;;;5113807;28;20483;-52
2023/10/28 11:33:52;;;;;;;;;;;25.10;49.70;;;;;;5112468;28;19923;-54
2023/10/28 11:36:21;;;;;;;;;;;25.10;49.70;;;;;;5114295;28;19924;-50
2023/10/28 11:38:48;;;;;;;;;;;25.10;49.70;;;;;;5113612;28;19923;-50
2023/10/28 11:41:16;;;;;;;;;;;25.10;49.70;;;;;;5113521;28;20321;-55
2023/10/28 11:43:43;;;;;;;;;;;25.10;49.70;;;;;;5113482;28;20422;-52
2023/10/28 11:46:10;;;;;;;;;;;25.10;49.80;;;;;;5113866;28;20362;-54
2023/10/28 11:48:38;;;;;;;;;;;25.10;49.90;;;;;;5113760;28;20022;-54
2023/10/28 11:51:05;;;;;;;;;;;25.00;49.80;;;;;;5112826;28;19931;-52
2023/10/28 11:53:32;;;;;;;;;;;25.10;49.90;;;;;;5113789;28;20014;-54
2023/10/28 11:55:59;;;;;;;;;;;25.00;49.80;;;;;;5095543;28;19970;-52
2023/10/28 11:58:26;;;;;;;;;;;25.10;49.90;;;;;;5093070;28;19924;-50
2023/10/28 12:00:55;;;;;;;;;;;25.00;49.80;;;;;;5094820;28;19924;-56
2023/10/28 12:03:23;;;;;;;;;;;25.10;49.90;;;;;;5097403;28;20407;-53
2023/10/28 12:05:50;;;;;;;;;;;25.10;49.70;;;;;;5097204;28;19939;-54
2023/10/28 12:08:18;;;;;;;;;;;25.10;50.20;;;;;;5097220;28;19931;-52
2023/10/28 12:10:45;;;;;;;;;;;25.20;49.80;;;;;;5097310;28;19925;-54
2023/10/28 12:13:12;;;;;;;;;;;25.20;49.60;;;;;;5096748;28;19924;-52
2023/10/28 12:15:40;;;;;;;;;;;25.20;49.60;;;;;;5097154;28;19928;-53
2023/10/28 12:18:07;;;;;;;;;;;25.20;49.60;;;;;;5097120;28;19924;-55
2023/10/28 12:20:34;;;;;;;;;;;25.20;49.60;;;;;;5097902;28;19924;-52
2023/10/28 12:23:02;;;;;;;;;;;25.20;49.70;;;;;;5117179;28;19947;-56
2023/10/28 12:25:30;;;;;;;;;;;25.10;49.60;;;;;;5104488;28;20384;-55
2023/10/28 12:27:57;;;;;;;;;;;25.10;49.70;;;;;;5097163;28;19924;-57
2023/10/28 12:30:24;;;;;;;;;;;25.10;49.70;;;;;;5096271;28;20014;-57
2023/10/28 12:32:51;;;;;;;;;;;25.10;49.70;;;;;;5103988;28;19927;-57
2023/10/28 12:35:19;;;;;;;;;;;25.10;49.70;;;;;;5100675;28;19931;-55
2023/10/28 12:37:46;;;;;;;;;;;25.10;49.70;;;;;;5098521;28;19935;-55
2023/10/28 12:40:13;;;;;;;;;;;25.20;49.70;;;;;;5116841;28;19924;-54
2023/10/28 12:42:41;;;;;;;;;;;25.10;49.60;;;;;;5116993;28;19970;-51
2023/10/28 12:45:09;;;;;;;;;;;25.20;49.80;;;;;;5117069;28;19924;-54
2023/10/28 12:47:36;;;;;;;;;;;25.20;49.80;;;;;;5116614;28;19923;-55
2023/10/28 12:50:03;;;;;;;;;;;25.10;49.70;;;;;;5117054;28;19924;-52
2023/10/28 12:52:30;;;;;;;;;;;25.20;49.80;;;;;;5149777;27;20375;-52
2023/10/28 12:55:01;;;;;;;;;;;25.10;49.70;;;;;;5116994;28;20432;-50
2023/10/28 12:57:28;;;;;;;;;;;25.10;49.70;;;;;;5116940;28;19954;-55
2023/10/28 12:59:55;;;;;;;;;;;25.10;49.70;;;;;;5096699;28;19928;-51
2023/10/28 13:02:23;;;;;;;;;;;25.10;49.70;;;;;;5096445;28;20018;-54
2023/10/28 13:04:50;;;;;;;;;;;25.10;49.60;;;;;;5096262;28;20030;-56
2023/10/28 13:07:17;;;;;;;;;;;25.10;49.60;;;;;;5096311;28;19924;-54
2023/10/28 13:09:44;;;;;;;;;;;25.10;49.60;;;;;;5101401;28;19927;-53
2023/10/28 13:12:11;;;;;;;;;;;25.10;49.60;;;;;;5104218;28;19930;-55
2023/10/28 13:14:38;;;;;;;;;;;25.10;49.50;;;;;;5143270;27;19969;-54
2023/10/28 13:17:05;;;;;;;;;;;25.10;49.50;;;;;;5116854;28;19924;-56
2023/10/28 13:19:32;;;;;;;;;;;25.10;49.30;;;;;;5116045;28;19928;-55
2023/10/28 13:22:00;;;;;;;;;;;25.10;49.30;;;;;;5116557;28;19992;-55
2023/10/28 13:24:29;;;;;;;;;;;25.10;49.30;;;;;;5112024;28;20010;-56
2023/10/28 13:26:57;;;;;;;;;;;25.10;49.30;;;;;;5096264;28;19928;-54
2023/10/28 13:29:24;;;;;;;;;;;25.10;49.30;;;;;;5096053;28;19924;-53
2023/10/28 13:31:51;;;;;;;;;;;25.10;49.30;;;;;;5095832;28;19931;-52
2023/10/28 13:34:20;;;;;;;;;;;25.10;49.30;;;;;;5095580;28;19925;-54
2023/10/28 13:36:48;;;;;;;;;;;25.10;49.30;;;;;;5095765;28;19924;-53
2023/10/28 13:39:16;;;;;;;;;;;25.10;49.30;;;;;;5095544;28;19959;-52
2023/10/28 13:41:46;;;;;;;;;;;25.10;49.40;;;;;;5095742;28;19969;-53
2023/10/28 13:44:13;;;;;;;;;;;25.10;49.50;;;;;;5095731;28;20323;-50
2023/10/28 13:46:40;;;;;;;;;;;25.10;49.50;;;;;;5098594;28;19934;-54
2023/10/28 13:49:07;;;;;;;;;;;25.10;49.60;;;;;;5104146;28;19977;-55
2023/10/28 13:51:34;;;;;;;;;;;25.00;50.10;;;;;;5115681;28;19974;-56
2023/10/28 13:54:01;;;;;;;;;;;25.00;49.60;;;;;;5115300;28;19924;-55
2023/10/28 13:56:29;;;;;;;;;;;25.00;49.60;;;;;;5115886;28;19924;-52
2023/10/28 13:58:56;;;;;;;;;;;25.00;49.60;;;;;;5114129;28;19928;-54
2023/10/28 14:01:23;;;;;;;;;;;24.90;49.70;;;;;;5115335;28;19975;-55
2023/10/28 14:03:50;;;;;;;;;;;25.00;49.80;;;;;;5114889;28;19979;-50
2023/10/28 14:06:18;;;;;;;;;;;25.00;49.80;;;;;;5115290;28;20287;-54
2023/10/28 14:08:45;;;;;;;;;;;25.00;49.90;;;;;;5115484;28;19924;-53
2023/10/28 14:11:13;;;;;;;;;;;25.00;49.90;;;;;;5114716;28;20466;-51
2023/10/28 14:13:40;;;;;;;;;;;24.90;49.90;;;;;;5114718;28;19935;-53
2023/10/28 14:16:19;;;;;;;;;;;25.00;49.90;;;;;;5115276;28;19969;-50
2023/10/28 14:18:49;;;;;;;;;;;25.00;49.90;;;;;;5115396;28;20019;-51
2023/10/28 14:21:16;;;;;;;;;;;24.90;49.90;;;;;;5115257;28;19924;-50